Time;durP1;ratioP1;P1;durP2;ratioP2;P2;SDS_P1;SDS_P2;PMS_P1;PMS_P2;Temp;Humidity;BMP_temperature;BMP_pressure;BME280_temperature;BME280_humidity;BME280_pressure;Samples;Min_cycle;Max_cycle;Signal;HPM_P1;HPM_P2
2022/09/09 00:02:00;;;;;;;8.57;4.87;;;;;;;17.31;100.00;100136.72;5068203;28;20071;-63
2022/09/09 00:04:37;;;;;;;11.15;4.95;;;;;;;17.31;100.00;100142.94;5060865;28;20045;-64
2022/09/09 00:07:03;;;;;;;12.60;5.38;;;;;;;17.38;100.00;100134.63;5067920;28;20035;-64
2022/09/09 00:09:37;;;;;;;9.73;4.85;;;;;;;17.32;100.00;100130.09;5067622;28;20029;-64
2022/09/09 00:12:32;;;;;;;10.57;4.97;;;;;;;17.11;100.00;100136.66;5064445;28;20550;-64
2022/09/09 00:15:12;;;;;;;9.18;4.68;;;;;;;16.93;100.00;100136.13;5062102;28;20044;-64
2022/09/09 00:18:17;;;;;;;7.93;4.65;;;;;;;16.83;100.00;100134.31;5066683;28;20032;-64
2022/09/09 00:21:07;;;;;;;9.80;4.70;;;;;;;16.89;100.00;100130.72;5061037;28;20048;-64
2022/09/09 00:23:39;;;;;;;9.80;4.18;;;;;;;17.17;100.00;100134.97;5055807;28;20040;-64
2022/09/09 00:26:13;;;;;;;10.13;4.80;;;;;;;17.16;100.00;100133.44;5068103;28;20077;-64
2022/09/09 00:28:48;;;;;;;10.65;4.38;;;;;;;17.25;100.00;100130.22;5068264;28;20507;-64
2022/09/09 00:31:22;;;;;;;11.55;4.72;;;;;;;17.20;100.00;100131.44;5064809;28;20064;-64
2022/09/09 00:33:49;;;;;;;8.85;4.53;;;;;;;17.26;100.00;100126.31;5066336;28;20086;-63
2022/09/09 00:36:18;;;;;;;9.25;4.60;;;;;;;17.30;100.00;100133.25;5064209;28;20068;-64
2022/09/09 00:38:55;;;;;;;10.57;4.72;;;;;;;17.35;100.00;100140.94;5066109;28;20404;-64
2022/09/09 00:41:50;;;;;;;11.98;5.13;;;;;;;17.17;100.00;100136.94;5066543;28;20047;-64
2022/09/09 00:44:31;;;;;;;12.05;5.18;;;;;;;17.24;100.00;100134.09;5065500;28;20024;-64
2022/09/09 00:47:04;;;;;;;8.95;4.63;;;;;;;17.31;100.00;100133.97;5067069;28;20060;-64
2022/09/09 00:49:45;;;;;;;9.90;4.90;;;;;;;17.27;100.00;100131.31;5065849;28;20060;-64
2022/09/09 00:52:20;;;;;;;11.07;4.72;;;;;;;17.34;100.00;100128.50;5069221;28;20099;-64
2022/09/09 00:54:58;;;;;;;11.30;5.65;;;;;;;17.38;100.00;100126.47;5062823;28;20028;-64
2022/09/09 00:57:28;;;;;;;12.05;5.35;;;;;;;17.20;100.00;100136.88;5066584;28;20036;-64
2022/09/09 01:00:17;;;;;;;10.13;5.33;;;;;;;17.21;100.00;100122.09;5067318;28;20055;-64
2022/09/09 01:02:57;;;;;;;11.75;5.60;;;;;;;17.24;100.00;100120.50;5067213;28;20028;-64
2022/09/09 01:05:39;;;;;;;11.65;5.05;;;;;;;17.32;100.00;100133.59;5062490;28;20029;-64
2022/09/09 01:08:21;;;;;;;10.07;4.50;;;;;;;17.39;100.00;100132.69;5065756;28;20029;-64
2022/09/09 01:10:55;;;;;;;11.20;5.25;;;;;;;17.34;100.00;100127.72;5066924;28;20064;-64
2022/09/09 01:13:35;;;;;;;21.15;6.30;;;;;;;17.40;100.00;100120.63;5063308;28;20056;-63
2022/09/09 01:16:11;;;;;;;10.40;5.07;;;;;;;17.55;100.00;100127.41;5063384;28;20115;-64
2022/09/09 01:18:44;;;;;;;11.82;4.85;;;;;;;17.41;100.00;100122.94;5065834;28;20098;-63
2022/09/09 01:21:27;;;;;;;11.85;5.63;;;;;;;17.45;100.00;100118.22;5066995;28;20154;-64
2022/09/09 01:24:20;;;;;;;11.25;5.60;;;;;;;17.35;100.00;100124.59;5060929;28;20115;-64
2022/09/09 01:27:00;;;;;;;14.20;6.07;;;;;;;17.47;100.00;100125.97;5063282;28;20025;-63
2022/09/09 01:29:26;;;;;;;13.27;5.25;;;;;;;17.52;100.00;100122.78;5066382;28;20024;-64
2022/09/09 01:32:01;;;;;;;11.02;4.97;;;;;;;17.44;100.00;100124.06;5071452;28;20610;-63
2022/09/09 01:34:33;;;;;;;12.68;5.68;;;;;;;17.46;100.00;100127.91;5048627;28;20039;-64
2022/09/09 01:37:08;;;;;;;10.10;4.72;;;;;;;17.56;100.00;100126.22;5049608;28;20059;-64
2022/09/09 01:39:38;;;;;;;11.38;5.10;;;;;;;17.54;100.00;100120.41;5067672;28;20084;-64
2022/09/09 01:42:10;;;;;;;14.65;5.65;;;;;;;17.34;100.00;100122.28;5072900;28;20033;-66
2022/09/09 01:44:37;;;;;;;11.75;5.22;;;;;;;17.26;100.00;100121.63;5069691;28;20127;-64
2022/09/09 01:47:04;;;;;;;10.75;5.55;;;;;;;17.34;100.00;100125.00;5064420;28;20436;-64
2022/09/09 01:49:32;;;;;;;10.07;4.28;;;;;;;17.35;100.00;100123.81;5062079;28;20481;-64
2022/09/09 01:51:59;;;;;;;11.80;5.25;;;;;;;17.42;100.00;100123.72;5072965;28;20037;-63
2022/09/09 01:54:31;;;;;;;;;;;;;;;17.50;100.00;100120.47;5069890;28;20056;-64
2022/09/09 01:57:21;;;;;;;11.07;4.55;;;;;;;17.48;100.00;100117.41;5064879;28;19917;-64
2022/09/09 02:00:09;;;;;;;12.57;5.32;;;;;;;17.43;100.00;100117.84;5073270;28;20032;-64
2022/09/09 02:03:02;;;;;;;17.88;6.07;;;;;;;17.45;100.00;100122.88;5072274;28;20119;-64
2022/09/09 02:05:40;;;;;;;11.18;4.90;;;;;;;17.42;100.00;100121.75;5070623;28;20523;-64
2022/09/09 02:08:33;;;;;;;14.32;5.80;;;;;;;17.37;100.00;100116.00;5071123;28;20388;-63
2022/09/09 02:11:04;;;;;;;11.52;4.65;;;;;;;17.38;100.00;100123.75;5067287;28;20127;-64
2022/09/09 02:13:38;;;;;;;10.50;4.85;;;;;;;17.22;100.00;100115.47;5083164;28;20405;-63
2022/09/09 02:16:12;;;;;;;12.45;5.20;;;;;;;17.30;100.00;100118.84;5062902;28;20520;-63
2022/09/09 02:19:08;;;;;;;12.43;4.10;;;;;;;17.15;100.00;100121.78;5071340;28;20192;-64
2022/09/09 02:21:49;;;;;;;9.45;4.75;;;;;;;17.15;100.00;100115.56;5068896;28;20083;-63
2022/09/09 02:24:16;;;;;;;14.20;5.53;;;;;;;17.21;100.00;100127.53;5051741;28;20041;-63
2022/09/09 02:26:52;;;;;;;10.38;4.95;;;;;;;17.18;100.00;100125.63;5067524;28;20059;-63
2022/09/09 02:29:27;;;;;;;14.20;5.22;;;;;;;16.99;100.00;100116.19;5072075;28;20032;-63
2022/09/09 02:31:57;;;;;;;9.52;5.03;;;;;;;17.03;100.00;100110.72;5070363;28;20505;-64
2022/09/09 02:34:30;;;;;;;11.05;4.65;;;;;;;17.20;100.00;100108.88;5065400;28;20037;-64
2022/09/09 02:36:59;;;;;;;8.25;3.95;;;;;;;16.97;100.00;100115.06;5069638;28;20026;-63
2022/09/09 02:39:24;;;;;;;13.30;5.72;;;;;;;16.84;100.00;100111.38;5068104;28;20044;-63
2022/09/09 02:41:51;;;;;;;9.40;4.55;;;;;;;16.91;100.00;100119.44;5071245;28;20232;-64
2022/09/09 02:44:18;;;;;;;13.05;5.78;;;;;;;16.92;100.00;100115.50;5068407;28;20036;-64
2022/09/09 02:46:52;;;;;;;10.70;4.38;;;;;;;16.82;100.00;100109.06;5086198;28;20032;-64
2022/09/09 02:49:46;;;;;;;11.85;4.63;;;;;;;16.90;100.00;100107.00;5049170;28;20200;-64
2022/09/09 02:52:18;;;;;;;11.32;5.18;;;;;;;16.96;100.00;100116.25;5078232;28;20029;-63
2022/09/09 02:54:44;;;;;;;9.00;4.35;;;;;;;17.08;100.00;100107.50;5068116;28;20028;-64
2022/09/09 02:57:17;;;;;;;10.35;4.57;;;;;;;16.95;100.00;100103.84;5069002;28;20029;-64
2022/09/09 02:59:47;;;;;;;10.38;4.63;;;;;;;16.86;100.00;100109.03;5069633;28;20071;-64
2022/09/09 03:02:13;;;;;;;11.15;5.13;;;;;;;16.88;100.00;100114.78;5068195;28;20033;-64
2022/09/09 03:04:43;;;;;;;9.95;4.28;;;;;;;17.06;100.00;100120.75;5068934;28;20125;-64
2022/09/09 03:07:09;;;;;;;8.68;4.53;;;;;;;16.99;100.00;100120.88;5073113;28;20028;-63
2022/09/09 03:09:35;;;;;;;10.75;4.60;;;;;;;16.98;100.00;100109.22;5071616;28;20036;-64
2022/09/09 03:12:01;;;;;;;10.63;4.50;;;;;;;16.81;100.00;100121.13;5069013;28;20102;-64
2022/09/09 03:14:28;;;;;;;9.65;5.15;;;;;;;16.80;100.00;100116.84;5066779;28;20519;-64
2022/09/09 03:19:29;;;;;;;11.80;5.25;;;;;;;16.90;100.00;100121.38;4998932;28;20516;-67
2022/09/09 03:21:55;;;;;;;12.57;4.45;;;;;;;16.79;100.00;100115.31;5011300;28;20057;-67
2022/09/09 03:24:23;;;;;;;14.23;5.65;;;;;;;16.83;100.00;100123.44;5005549;28;20034;-67
2022/09/09 03:26:50;;;;;;;9.63;4.72;;;;;;;16.80;100.00;100116.09;5004476;28;20517;-66
2022/09/09 03:29:18;;;;;;;10.88;4.78;;;;;;;16.85;100.00;100124.56;4998894;28;20038;-67
2022/09/09 03:31:44;;;;;;;12.93;4.65;;;;;;;16.93;100.00;100119.78;4990204;28;20065;-67
2022/09/09 03:34:11;;;;;;;10.00;4.85;;;;;;;16.96;100.00;100117.00;4985679;28;20478;-66
2022/09/09 03:36:37;;;;;;;11.07;4.72;;;;;;;17.02;100.00;100122.75;4989136;28;20047;-67
2022/09/09 03:39:03;;;;;;;14.68;5.57;;;;;;;16.96;100.00;100113.53;4989051;28;20030;-67
2022/09/09 03:41:30;;;;;;;12.18;4.88;;;;;;;16.92;100.00;100115.50;4995229;28;20061;-67
2022/09/09 03:43:57;;;;;;;11.70;5.15;;;;;;;16.86;100.00;100120.66;4988574;28;20037;-66
2022/09/09 03:46:25;;;;;;;8.88;4.18;;;;;;;16.82;100.00;100121.91;4973365;28;20039;-67
2022/09/09 03:48:53;;;;;;;13.35;5.75;;;;;;;16.69;100.00;100129.06;4988446;28;20446;-67
2022/09/09 03:51:19;;;;;;;12.77;5.95;;;;;;;16.79;100.00;100125.41;4990390;28;20502;-67
2022/09/09 03:53:46;;;;;;;10.45;4.97;;;;;;;16.66;100.00;100130.66;4988938;28;20114;-67
2022/09/09 03:56:12;;;;;;;9.63;4.60;;;;;;;16.72;100.00;100133.69;4991240;28;20506;-67
2022/09/09 03:58:38;;;;;;;10.25;4.50;;;;;;;16.82;100.00;100135.50;4992404;28;20093;-67
2022/09/09 04:01:09;;;;;;;11.65;5.15;;;;;;;16.73;100.00;100127.06;4987017;28;20035;-67
2022/09/09 04:03:35;;;;;;;11.70;5.07;;;;;;;16.76;100.00;100123.53;4985772;28;20061;-67
2022/09/09 04:06:03;;;;;;;14.38;5.72;;;;;;;16.78;100.00;100134.78;4970205;28;20463;-67
2022/09/09 04:08:33;;;;;;;11.90;4.95;;;;;;;16.58;100.00;100131.13;5000817;28;20058;-67
2022/09/09 04:11:05;;;;;;;12.90;5.50;;;;;;;16.55;100.00;100129.25;4985561;28;20475;-67
2022/09/09 04:13:31;;;;;;;;;;;;;;;16.46;100.00;100137.84;4991438;28;20117;-67
2022/09/09 04:15:59;;;;;;;9.80;4.70;;;;;;;16.51;100.00;100136.69;4994767;28;19918;-66
2022/09/09 04:18:25;;;;;;;7.53;3.35;;;;;;;16.60;100.00;100134.22;5001263;28;20029;-67
2022/09/09 04:20:53;;;;;;;10.27;4.60;;;;;;;16.44;100.00;100137.50;5023778;28;20072;-67
2022/09/09 04:23:21;;;;;;;9.43;4.70;;;;;;;16.46;100.00;100137.09;5007047;28;20069;-66
2022/09/09 04:25:48;;;;;;;8.20;4.60;;;;;;;16.52;100.00;100138.97;5008404;28;20075;-67
2022/09/09 04:28:15;;;;;;;7.78;4.05;;;;;;;16.44;100.00;100147.59;5008415;28;20052;-67
2022/09/09 04:30:42;;;;;;;11.82;5.68;;;;;;;16.48;100.00;100143.69;5007986;28;20072;-67
2022/09/09 04:33:09;;;;;;;8.82;3.85;;;;;;;16.63;100.00;100138.84;5008627;28;20033;-67
2022/09/09 04:35:35;;;;;;;11.75;4.45;;;;;;;16.50;100.00;100148.72;4993536;28;20116;-67
2022/09/09 04:38:02;;;;;;;10.27;4.72;;;;;;;16.48;100.00;100153.75;5013884;28;20041;-67
2022/09/09 04:40:30;;;;;;;8.10;4.45;;;;;;;16.55;100.00;100148.28;5002879;28;20040;-67
2022/09/09 04:43:00;;;;;;;8.07;4.35;;;;;;;16.69;100.00;100153.53;5001934;28;20034;-67
2022/09/09 04:45:26;;;;;;;10.32;4.25;;;;;;;16.71;100.00;100151.94;5004878;28;20032;-67
2022/09/09 04:47:53;;;;;;;10.07;4.93;;;;;;;16.56;100.00;100152.53;5020611;28;20057;-67
2022/09/09 04:50:19;;;;;;;9.65;4.35;;;;;;;16.69;100.00;100154.31;5007462;28;20064;-67
2022/09/09 04:52:46;;;;;;;10.88;4.63;;;;;;;16.78;100.00;100160.00;5010100;28;20137;-67
2022/09/09 04:55:14;;;;;;;6.90;3.45;;;;;;;16.64;100.00;100154.00;5004631;28;20125;-67
2022/09/09 04:57:43;;;;;;;9.30;4.57;;;;;;;16.70;100.00;100164.00;5008539;28;20512;-67
2022/09/09 05:00:12;;;;;;;9.77;3.75;;;;;;;16.46;100.00;100164.25;5006083;28;20042;-67
2022/09/09 05:02:39;;;;;;;9.00;4.15;;;;;;;16.41;100.00;100159.28;5024097;28;20053;-67
2022/09/09 05:05:06;;;;;;;9.23;4.22;;;;;;;16.45;100.00;100163.50;5004136;28;20034;-67
2022/09/09 05:07:32;;;;;;;7.03;3.80;;;;;;;16.66;100.00;100159.78;5000317;28;20050;-67
2022/09/09 05:09:57;;;;;;;6.40;4.22;;;;;;;16.70;100.00;100160.53;5008998;28;20072;-67
2022/09/09 05:12:25;;;;;;;12.50;4.00;;;;;;;16.62;100.00;100151.69;5018591;28;20029;-67
2022/09/09 05:14:52;;;;;;;7.63;3.80;;;;;;;16.72;100.00;100163.59;5009097;28;20100;-67
2022/09/09 05:17:17;;;;;;;8.13;3.70;;;;;;;16.67;100.00;100166.75;5010890;28;20110;-67
2022/09/09 05:19:43;;;;;;;12.20;3.60;;;;;;;16.60;100.00;100162.19;5007638;28;20037;-67
2022/09/09 05:22:11;;;;;;;6.78;3.72;;;;;;;16.54;100.00;100166.53;5014511;28;20096;-67
2022/09/09 05:24:44;;;;;;;8.40;3.95;;;;;;;16.50;100.00;100173.19;5021862;28;20030;-67
2022/09/09 05:27:12;;;;;;;6.18;3.40;;;;;;;16.65;100.00;100158.22;5013708;28;20030;-67
2022/09/09 05:29:38;;;;;;;6.40;3.50;;;;;;;16.60;100.00;100166.84;5008144;28;20065;-67
2022/09/09 05:32:06;;;;;;;7.82;3.33;;;;;;;16.69;100.00;100169.84;5011332;28;20030;-67
2022/09/09 05:34:34;;;;;;;6.93;3.33;;;;;;;16.74;100.00;100172.13;5010139;28;20030;-67
2022/09/09 05:37:00;;;;;;;5.45;3.03;;;;;;;16.67;100.00;100172.19;5001927;28;20482;-67
2022/09/09 05:39:25;;;;;;;4.95;3.10;;;;;;;16.57;100.00;100171.16;5009403;28;20508;-67
2022/09/09 05:41:51;;;;;;;6.28;3.47;;;;;;;16.42;100.00;100168.97;5003150;28;20026;-67
2022/09/09 05:44:17;;;;;;;6.53;3.67;;;;;;;16.50;100.00;100178.63;5007649;28;20064;-67
2022/09/09 05:46:42;;;;;;;8.82;3.47;;;;;;;16.69;100.00;100178.78;5009386;28;20100;-67
2022/09/09 05:49:08;;;;;;;4.75;2.97;;;;;;;16.74;100.00;100181.03;5015309;28;20038;-67
2022/09/09 05:51:35;;;;;;;5.80;3.53;;;;;;;16.84;100.00;100187.53;5006670;28;20033;-67
2022/09/09 05:54:05;;;;;;;6.75;3.25;;;;;;;16.92;100.00;100186.25;5023099;28;20561;-68
2022/09/09 05:56:35;;;;;;;7.65;3.78;;;;;;;16.50;100.00;100190.28;5007413;28;20136;-67
2022/09/09 05:59:02;;;;;;;5.72;2.85;;;;;;;16.72;100.00;100193.53;5012318;28;20040;-67
2022/09/09 06:01:30;;;;;;;9.45;2.95;;;;;;;16.85;100.00;100194.50;5007847;28;20041;-67
2022/09/09 06:03:57;;;;;;;4.93;2.80;;;;;;;16.77;100.00;100193.06;5012563;28;20113;-67
2022/09/09 06:06:30;;;;;;;3.85;2.40;;;;;;;17.00;100.00;100195.88;5011064;28;20033;-67
2022/09/09 06:09:01;;;;;;;5.18;2.78;;;;;;;16.94;100.00;100198.28;4992263;28;20057;-67
2022/09/09 06:11:33;;;;;;;7.32;3.67;;;;;;;16.85;100.00;100206.16;5009018;28;20044;-67
2022/09/09 06:14:00;;;;;;;5.05;2.70;;;;;;;16.92;100.00;100202.56;5011192;28;20029;-67
2022/09/09 06:16:28;;;;;;;5.60;2.90;;;;;;;17.12;100.00;100211.66;5010818;28;20017;-67
2022/09/09 06:18:54;;;;;;;4.55;2.63;;;;;;;17.19;100.00;100211.53;5001721;28;20038;-67
2022/09/09 06:21:23;;;;;;;4.63;3.03;;;;;;;17.41;100.00;100212.00;5013656;28;20087;-67
2022/09/09 06:23:51;;;;;;;5.88;2.67;;;;;;;17.42;100.00;100206.16;5010297;28;20557;-67
2022/09/09 06:26:21;;;;;;;4.97;2.67;;;;;;;17.39;100.00;100211.66;5010977;28;20051;-67
2022/09/09 06:28:50;;;;;;;5.38;2.10;;;;;;;17.43;100.00;100221.31;5006703;28;20121;-67
2022/09/09 06:31:23;;;;;;;3.47;2.35;;;;;;;17.56;100.00;100219.59;5009791;28;20033;-67
2022/09/09 06:33:50;;;;;;;5.82;2.22;;;;;;;17.55;100.00;100226.22;5023653;28;20384;-67
2022/09/09 06:36:21;;;;;;;3.83;2.22;;;;;;;17.66;100.00;100223.31;5010640;28;20040;-67
2022/09/09 06:38:47;;;;;;;6.15;2.40;;;;;;;17.67;100.00;100222.91;5010120;28;20076;-70
2022/09/09 06:41:16;;;;;;;4.88;2.50;;;;;;;17.71;100.00;100217.44;4993782;28;20038;-67
2022/09/09 06:43:47;;;;;;;4.00;2.50;;;;;;;17.61;100.00;100223.81;5005488;28;20030;-67
2022/09/09 06:46:17;;;;;;;5.45;2.15;;;;;;;17.67;100.00;100217.47;5020995;28;20058;-66
2022/09/09 06:48:44;;;;;;;5.15;2.88;;;;;;;17.65;100.00;100219.81;5004429;28;20034;-67
2022/09/09 06:51:13;;;;;;;3.17;1.92;;;;;;;17.73;100.00;100221.25;5007509;28;20038;-68
2022/09/09 06:53:41;;;;;;;4.10;2.35;;;;;;;17.74;100.00;100228.25;5004910;28;20030;-68
2022/09/09 06:56:09;;;;;;;4.43;2.22;;;;;;;17.77;100.00;100221.97;5009584;28;20042;-68
2022/09/09 06:58:36;;;;;;;3.17;1.80;;;;;;;17.67;100.00;100206.56;5028663;28;20076;-67
2022/09/09 07:01:04;;;;;;;3.20;1.90;;;;;;;17.76;100.00;100220.44;5006052;28;20034;-67
2022/09/09 07:03:30;;;;;;;5.40;2.40;;;;;;;17.73;100.00;100226.72;5007919;28;20026;-67
2022/09/09 07:05:56;;;;;;;2.80;1.98;;;;;;;17.55;100.00;100215.34;5020518;28;20064;-68
2022/09/09 07:08:24;;;;;;;3.25;2.15;;;;;;;17.69;100.00;100215.09;5024665;28;20061;-67
2022/09/09 07:10:53;;;;;;;3.17;1.95;;;;;;;17.82;100.00;100207.91;5025930;28;20410;-67
2022/09/09 07:13:28;;;;;;;3.42;1.98;;;;;;;17.95;100.00;100211.56;4992028;28;20056;-67
2022/09/09 07:15:55;;;;;;;1.90;1.48;;;;;;;18.27;100.00;100218.41;5025568;28;20792;-67
2022/09/09 07:18:20;;;;;;;2.53;1.67;;;;;;;18.29;100.00;100221.50;5004318;28;20022;-68
2022/09/09 07:20:54;;;;;;;2.47;1.70;;;;;;;18.47;100.00;100219.22;5010286;28;20402;-67
2022/09/09 07:23:20;;;;;;;3.78;2.08;;;;;;;18.31;100.00;100221.84;5026059;28;20072;-68
2022/09/09 07:25:47;;;;;;;4.45;2.08;;;;;;;18.46;100.00;100231.34;5007610;28;20053;-67
2022/09/09 07:28:15;;;;;;;4.13;2.03;;;;;;;18.65;100.00;100227.84;5010092;28;20022;-68
2022/09/09 07:30:41;;;;;;;2.22;1.33;;;;;;;18.80;100.00;100227.16;5009065;28;20028;-67
2022/09/09 07:33:06;;;;;;;4.13;1.42;;;;;;;18.70;99.92;100230.06;5008626;28;20041;-68
2022/09/09 07:35:32;;;;;;;1.45;1.27;;;;;;;18.51;100.00;100230.84;5008018;28;20052;-67
2022/09/09 07:38:00;;;;;;;2.92;1.40;;;;;;;18.56;100.00;100233.84;5010098;28;20037;-67
2022/09/09 07:40:25;;;;;;;2.75;1.48;;;;;;;18.60;100.00;100228.34;5010894;28;20034;-68
2022/09/09 07:42:52;;;;;;;3.00;1.85;;;;;;;18.91;100.00;100246.03;4996249;28;20026;-67
2022/09/09 07:45:17;;;;;;;3.03;1.60;;;;;;;19.16;100.00;100245.53;5000954;28;20041;-67
2022/09/09 07:47:43;;;;;;;4.18;1.65;;;;;;;19.43;100.00;100246.91;5012475;28;20041;-68
2022/09/09 07:50:10;;;;;;;3.17;1.95;;;;;;;19.57;98.86;100248.50;4985801;28;20403;-68
2022/09/09 07:52:35;;;;;;;4.55;1.23;;;;;;;19.77;99.69;100244.53;5010324;28;20022;-67
2022/09/09 07:55:04;;;;;;;4.07;1.30;;;;;;;19.94;100.00;100258.97;5010408;28;20514;-67
2022/09/09 07:57:30;;;;;;;1.80;1.13;;;;;;;20.12;99.37;100264.00;5011884;28;20034;-68
2022/09/09 07:59:57;;;;;;;2.00;1.30;;;;;;;20.42;97.51;100274.59;5004888;28;20033;-67
2022/09/09 08:02:25;;;;;;;2.10;1.10;;;;;;;;;;5008233;28;20052;-68
2022/09/09 08:04:51;;;;;;;1.90;1.30;;;;;;;20.58;96.42;100272.56;5005988;28;20030;-67
2022/09/09 08:07:21;;;;;;;1.40;1.10;;;;;;;20.63;95.71;100271.28;5022537;28;20034;-67
2022/09/09 08:09:50;;;;;;;2.53;1.23;;;;;;;20.32;94.30;100267.44;5003074;28;20956;-67
2022/09/09 08:12:23;;;;;;;0.98;0.80;;;;;;;20.29;94.39;100268.28;5007956;28;20616;-68
2022/09/09 08:14:51;;;;;;;1.55;1.00;;;;;;;20.07;94.95;100264.53;5003759;28;20034;-66
2022/09/09 08:17:17;;;;;;;1.02;0.75;;;;;;;19.96;95.73;100270.22;5003063;28;20029;-67
2022/09/09 08:19:44;;;;;;;2.58;1.17;;;;;;;19.88;95.81;100262.66;5006596;28;20069;-67
2022/09/09 08:22:14;;;;;;;1.05;0.75;;;;;;;19.92;96.31;100269.56;5013802;28;20494;-67
2022/09/09 08:24:40;;;;;;;1.58;1.17;;;;;;;20.03;96.03;100266.56;5004374;28;20030;-68
2022/09/09 08:27:06;;;;;;;1.15;0.90;;;;;;;20.04;96.27;100276.28;4995018;28;20538;-68
2022/09/09 08:29:32;;;;;;;2.60;1.15;;;;;;;19.99;96.67;100282.28;4988973;28;20042;-67
2022/09/09 08:31:58;;;;;;;1.70;0.80;;;;;;;20.14;96.58;100280.75;5010664;28;20026;-68
2022/09/09 08:34:26;;;;;;;1.17;0.93;;;;;;;20.29;95.48;100279.22;5004752;28;20026;-69
2022/09/09 08:36:53;;;;;;;1.33;1.02;;;;;;;20.34;94.22;100284.94;4988683;28;20079;-68
2022/09/09 08:39:26;;;;;;;1.02;0.82;;;;;;;20.28;95.04;100281.19;5020088;28;20030;-68
2022/09/09 08:41:52;;;;;;;2.05;1.10;;;;;;;20.23;94.12;100283.66;5020245;28;20041;-68
2022/09/09 08:44:36;;;;;;;2.70;0.90;;;;;;;20.04;94.09;100284.50;5008722;28;20038;-67
2022/09/09 08:47:21;;;;;;;2.00;0.90;;;;;;;20.14;94.52;100287.00;5007213;28;20087;-67
2022/09/09 08:50:05;;;;;;;1.00;0.77;;;;;;;20.04;94.35;100279.81;5005960;28;20042;-68
2022/09/09 08:52:36;;;;;;;4.22;0.88;;;;;;;20.16;93.64;100286.56;5014705;28;20034;-68
2022/09/09 08:55:21;;;;;;;1.42;1.13;;;;;;;20.09;93.77;100284.00;4992359;28;21169;-67
2022/09/09 08:57:51;;;;;;;0.88;0.80;;;;;;;19.97;94.83;100284.69;5007994;28;20022;-68
2022/09/09 09:00:18;;;;;;;1.83;1.00;;;;;;;20.07;94.59;100284.44;5009321;28;20035;-68
2022/09/09 09:02:59;;;;;;;1.40;0.80;;;;;;;20.33;94.88;100280.66;5010133;28;20049;-69
2022/09/09 09:05:32;;;;;;;2.03;0.80;;;;;;;20.64;94.91;100283.75;5004502;28;20034;-68
2022/09/09 09:08:03;;;;;;;3.53;0.98;;;;;;;20.73;93.50;100288.63;5014861;28;20372;-69
2022/09/09 09:10:48;;;;;;;0.70;0.70;;;;;;;21.04;93.42;100293.22;5025205;28;20092;-68
2022/09/09 09:13:33;;;;;;;1.08;0.60;;;;;;;21.33;91.98;100304.91;5007883;28;20469;-69
2022/09/09 09:16:18;;;;;;;1.90;0.73;;;;;;;21.29;89.06;100300.75;5007497;28;20415;-69
2022/09/09 09:18:43;;;;;;;0.40;0.40;;;;;;;21.37;89.13;100313.03;5052613;22;20038;-68
2022/09/09 09:21:20;;;;;;;0.77;0.57;;;;;;;21.43;86.49;100306.56;5008797;28;20087;-67
2022/09/09 09:23:56;;;;;;;2.60;0.70;;;;;;;21.70;87.90;100308.13;5026367;28;20497;-67
2022/09/09 09:26:29;;;;;;;2.90;0.70;;;;;;;21.98;88.10;100312.75;5028349;28;20068;-68
2022/09/09 09:28:59;;;;;;;0.70;0.63;;;;;;;21.99;84.55;100311.56;5034341;28;20024;-68
2022/09/09 09:31:26;;;;;;;0.40;0.35;;;;;;;22.11;84.99;100305.28;5048119;28;20090;-68
2022/09/09 09:33:54;;;;;;;0.90;0.70;;;;;;;22.19;85.91;100310.09;5031836;28;20037;-68
2022/09/09 09:36:51;;;;;;;2.72;0.70;;;;;;;22.33;84.92;100311.59;5027653;28;20124;-68
2022/09/09 09:39:26;;;;;;;1.35;1.15;;;;;;;22.35;81.61;100306.44;5029496;28;20040;-68
2022/09/09 09:42:00;;;;;;;0.30;0.30;;;;;;;22.34;81.80;100302.91;5028605;28;20533;-67
2022/09/09 09:44:32;;;;;;;0.40;0.40;;;;;;;22.30;81.58;100312.47;5025205;28;20037;-68
2022/09/09 09:47:07;;;;;;;2.22;0.50;;;;;;;22.35;82.91;100309.19;5008745;28;20037;-68
2022/09/09 09:49:34;;;;;;;0.88;0.52;;;;;;;22.24;81.57;100303.28;5021888;28;20040;-68
2022/09/09 09:52:02;;;;;;;0.88;0.68;;;;;;;22.13;81.67;100303.63;5025290;28;20386;-68
2022/09/09 09:54:32;;;;;;;0.70;0.45;;;;;;;22.59;82.68;100301.34;5034336;28;20056;-68
2022/09/09 09:57:12;;;;;;;1.75;0.70;;;;;;;23.08;80.13;100302.31;5031921;28;20037;-68
2022/09/09 09:59:40;;;;;;;0.43;0.40;;;;;;;22.98;78.27;100306.97;5029260;28;20057;-68
2022/09/09 10:02:17;;;;;;;1.55;0.60;;;;;;;22.88;79.34;100308.13;5026213;28;20037;-69
2022/09/09 10:04:45;;;;;;;0.80;0.60;;;;;;;23.05;79.52;100306.72;5024232;28;20033;-68
2022/09/09 10:07:16;;;;;;;0.55;0.40;;;;;;;23.14;80.17;100306.78;5034648;28;20022;-68
2022/09/09 10:09:42;;;;;;;0.50;0.50;;;;;;;22.86;79.14;100318.03;5034870;28;20059;-69
2022/09/09 10:12:16;;;;;;;4.20;0.65;;;;;;;22.74;79.63;100313.38;5033672;28;20493;-68
2022/09/09 10:14:57;;;;;;;1.30;0.93;;;;;;;22.84;79.54;100312.97;5026603;28;20029;-67
2022/09/09 10:17:28;;;;;;;4.50;0.93;;;;;;;22.45;79.68;100308.06;5024800;28;20037;-68
2022/09/09 10:20:23;;;;;;;;;;;;;;;22.35;82.54;100320.16;5045987;28;20116;-68
2022/09/09 10:22:52;;;;;;;1.25;0.95;;;;;;;22.91;80.11;100318.25;5010543;28;19927;-68
2022/09/09 10:25:38;;;;;;;1.92;0.70;;;;;;;23.09;80.46;100315.59;5026015;28;20045;-67
2022/09/09 10:28:22;;;;;;;0.93;0.80;;;;;;;23.39;78.64;100305.13;5045471;28;20527;-68
2022/09/09 10:31:20;;;;;;;0.98;0.80;;;;;;;23.77;77.55;100303.59;5048952;28;20142;-68
2022/09/09 10:34:19;;;;;;;0.55;0.50;;;;;;;24.01;76.21;100298.34;5038044;28;20028;-68
2022/09/09 10:36:49;;;;;;;0.70;0.70;;;;;;;24.11;73.99;100302.69;5049081;28;20039;-67
2022/09/09 10:39:40;;;;;;;2.75;0.75;;;;;;;24.08;74.88;100309.06;5059946;28;20501;-67
2022/09/09 10:42:18;;;;;;;4.28;0.70;;;;;;;23.71;73.41;100299.16;5049645;28;20056;-68
2022/09/09 10:45:02;;;;;;;0.55;0.45;;;;;;;23.47;73.48;100298.91;5049563;28;20110;-68
2022/09/09 10:47:30;;;;;;;0.40;0.40;;;;;;;22.98;74.79;100297.97;5046395;28;20481;-68
2022/09/09 10:50:33;;;;;;;0.40;0.40;;;;;;;22.79;77.26;100293.56;5040781;28;20059;-67
2022/09/09 10:53:14;;;;;;;0.40;0.38;;;;;;;23.05;77.32;100300.47;5045223;28;20689;-68
2022/09/09 10:55:47;;;;;;;1.80;0.53;;;;;;;23.11;77.34;100298.69;5042382;28;20100;-68
2022/09/09 10:58:20;;;;;;;1.05;0.40;;;;;;;23.35;76.73;100293.47;5030283;28;20314;-65
2022/09/09 11:00:51;;;;;;;0.82;0.65;;;;;;;23.18;75.31;100292.91;5052757;28;20067;-68
2022/09/09 11:03:24;;;;;;;0.70;0.60;;;;;;;23.24;74.27;100291.91;5051227;28;20036;-68
2022/09/09 11:06:17;;;;;;;0.90;0.52;;;;;;;23.45;73.58;100284.06;5052251;28;20028;-68
2022/09/09 11:08:42;;;;;;;0.68;0.57;;;;;;;23.16;75.35;100293.38;5052494;28;20029;-67
2022/09/09 11:11:26;;;;;;;1.90;0.50;;;;;;;22.93;76.45;100288.34;5023450;28;20484;-67
2022/09/09 11:14:03;;;;;;;0.32;0.32;;;;;;;22.92;77.90;100286.78;5046491;28;20444;-68
2022/09/09 11:16:56;;;;;;;4.00;0.70;;;;;;;22.81;76.36;100280.91;5052058;28;20073;-67
2022/09/09 11:19:30;;;;;;;0.73;0.63;;;;;;;22.74;76.03;100280.41;5047250;28;20095;-67
2022/09/09 11:21:58;;;;;;;2.13;0.43;;;;;;;22.83;77.04;100286.72;5035662;28;20213;-67
2022/09/09 11:24:29;;;;;;;0.80;0.50;;;;;;;22.98;79.10;100279.50;5052233;28;20033;-67
2022/09/09 11:27:02;;;;;;;;;;;;;;;23.15;77.89;100283.56;5046173;28;20112;-68
2022/09/09 11:29:37;;;;;;;0.57;0.45;;;;;;;23.18;78.20;100282.69;5047058;28;19966;-68
2022/09/09 11:32:27;;;;;;;2.28;0.68;;;;;;;23.48;77.94;100289.44;5048843;28;20040;-67
2022/09/09 11:35:32;;;;;;;2.13;0.50;;;;;;;24.14;76.92;100296.25;5048915;28;20070;-68
2022/09/09 11:38:21;;;;;;;0.35;0.35;;;;;;;24.26;73.20;100295.34;5028232;28;20052;-68
2022/09/09 11:41:06;;;;;;;0.60;0.50;;;;;;;24.30;71.28;100295.19;5047380;28;20120;-67
2022/09/09 11:43:58;;;;;;;1.00;0.60;;;;;;;24.29;73.70;100305.47;5050736;28;20075;-68
2022/09/09 11:46:37;;;;;;;0.50;0.50;;;;;;;24.23;72.85;100299.03;5037801;28;20041;-67